createdAt,value
2019-01-26T00:00:32.666Z,100433.33
2019-01-26T00:05:34.824Z,100427.41
2019-01-26T00:10:37.403Z,100416.30
2019-01-26T00:15:40.043Z,100403.09
2019-01-26T00:20:42.493Z,100385.25
2019-01-26T00:25:44.622Z,100368.70
2019-01-26T00:30:46.947Z,100358.13
2019-01-26T00:35:49.662Z,100351.17
2019-01-26T00:40:52.555Z,100337.04
2019-01-26T00:45:55.677Z,100326.65
2019-01-26T00:50:59.295Z,100305.30
2019-01-26T00:56:01.760Z,100286.08
2019-01-26T01:01:04.388Z,100284.27
2019-01-26T01:06:06.974Z,100276.19
2019-01-26T01:11:10.764Z,100270.59
2019-01-26T01:16:12.957Z,100276.52
2019-01-26T01:21:15.491Z,100268.91
2019-01-26T01:26:17.820Z,100262.09
2019-01-26T01:31:20.085Z,100254.34
2019-01-26T01:36:22.384Z,100243.68
2019-01-26T01:41:24.545Z,100227.09
2019-01-26T01:46:27.302Z,100219.47
2019-01-26T01:51:29.497Z,100196.89
2019-01-26T01:56:31.766Z,100172.27
2019-01-26T02:01:34.464Z,100182.91
2019-01-26T02:06:36.870Z,100167.98
2019-01-26T02:11:39.462Z,100164.09
2019-01-26T02:16:42.024Z,100142.94
2019-01-26T02:21:45.924Z,100147.05
2019-01-26T02:26:48.795Z,100147.92
2019-01-26T02:31:51.578Z,100139.34
2019-01-26T02:36:53.790Z,100111.25
2019-01-26T02:41:56.283Z,100099.73
2019-01-26T02:46:58.833Z,100103.50
2019-01-26T02:52:01.347Z,100096.63
2019-01-26T02:57:03.782Z,100084.66
2019-01-26T03:02:06.068Z,100077.81
2019-01-26T03:07:09.562Z,100059.08
2019-01-26T03:12:11.748Z,100046.25
2019-01-26T03:17:15.234Z,100027.65
2019-01-26T03:22:17.826Z,100018.25
2019-01-26T03:27:20.667Z,100010.63
2019-01-26T03:32:23.458Z,100015.29
2019-01-26T03:37:26.335Z,100020.83
2019-01-26T03:42:28.992Z,100018.28
2019-01-26T03:47:31.550Z,100005.08
2019-01-26T03:52:34.405Z,100002.81
2019-01-26T03:57:37.761Z,99996.42
2019-01-26T04:02:40.274Z,99989.42
2019-01-26T04:07:43.278Z,99975.75
2019-01-26T04:12:45.978Z,99975.55
2019-01-26T04:17:49.092Z,99975.78
2019-01-26T04:22:51.716Z,99964.16
2019-01-26T04:27:54.549Z,99967.89
2019-01-26T04:32:57.562Z,99960.09
2019-01-26T04:38:00.101Z,99961.23
2019-01-26T04:43:02.879Z,99956.42
2019-01-26T04:48:05.365Z,99946.10
2019-01-26T04:53:07.684Z,99937.86
2019-01-26T04:58:09.984Z,99933.12
2019-01-26T05:03:12.445Z,99932.61
2019-01-26T05:08:14.948Z,99924.87
2019-01-26T05:13:17.483Z,99917.54
2019-01-26T05:18:20.010Z,99926.38
2019-01-26T05:23:22.612Z,99921.19
2019-01-26T05:28:25.294Z,99917.58
2019-01-26T05:33:27.586Z,99906.91
2019-01-26T05:38:30.171Z,99901.37
2019-01-26T05:43:32.398Z,99890.70
2019-01-26T05:48:34.740Z,99888.11
2019-01-26T05:53:36.960Z,99884.20
2019-01-26T05:58:39.701Z,99882.45
2019-01-26T06:03:42.734Z,99888.73
2019-01-26T06:08:44.969Z,99901.42
2019-01-26T06:13:47.456Z,99892.41
2019-01-26T06:18:49.662Z,99887.70
2019-01-26T06:23:52.136Z,99876.52
2019-01-26T06:28:55.470Z,99881.11
2019-01-26T06:33:57.760Z,99884.00
2019-01-26T06:39:00.713Z,99877.45
2019-01-26T06:44:03.047Z,99871.30
2019-01-26T06:49:05.273Z,99867.30
2019-01-26T06:54:07.636Z,99868.86
2019-01-26T06:59:09.974Z,99871.22
2019-01-26T07:04:16.134Z,99868.82
2019-01-26T07:09:18.331Z,99867.66
2019-01-26T07:14:21.404Z,99875.45
2019-01-26T07:19:24.307Z,99873.52
2019-01-26T07:24:26.702Z,99870.22
2019-01-26T07:29:28.901Z,99874.22
2019-01-26T07:34:31.260Z,99887.19
2019-01-26T07:39:33.584Z,99886.94
2019-01-26T07:44:36.180Z,99886.77
2019-01-26T07:49:38.664Z,99880.28
2019-01-26T07:54:41.573Z,99879.71
2019-01-26T07:59:44.070Z,99885.05
2019-01-26T08:04:47.098Z,99884.92
2019-01-26T08:09:49.352Z,99888.55
2019-01-26T08:14:52.321Z,99890.85
2019-01-26T08:19:56.579Z,99885.55
2019-01-26T08:24:59.253Z,99878.09
2019-01-26T08:30:01.970Z,99875.78
2019-01-26T08:35:05.944Z,99876.00
2019-01-26T08:40:10.955Z,99868.45
2019-01-26T08:45:14.228Z,99871.22
2019-01-26T08:50:20.503Z,99865.91
2019-01-26T08:55:23.655Z,99873.02
2019-01-26T09:00:27.574Z,99871.11
2019-01-26T09:05:32.785Z,99876.84
2019-01-26T09:10:35.363Z,99870.23
2019-01-26T09:15:37.945Z,99866.13
2019-01-26T09:20:40.788Z,99874.10
2019-01-26T09:25:46.433Z,99875.95
2019-01-26T09:30:48.924Z,99880.83
2019-01-26T09:35:51.967Z,99882.76
2019-01-26T09:40:56.889Z,99876.98
2019-01-26T09:46:01.368Z,99878.13
2019-01-26T09:51:04.276Z,99880.05
2019-01-26T09:56:09.044Z,99881.64
2019-01-26T10:01:11.632Z,99883.56
2019-01-26T10:06:14.076Z,99871.88
2019-01-26T10:11:16.483Z,99873.89
2019-01-26T10:16:20.093Z,99874.89
2019-01-26T10:21:22.906Z,99869.56
2019-01-26T10:26:25.435Z,99865.51
2019-01-26T10:31:27.747Z,99855.87
2019-01-26T10:36:40.111Z,99857.55
2019-01-26T10:42:02.232Z,99852.66
2019-01-26T10:47:05.901Z,99839.23
2019-01-26T10:52:09.471Z,99846.67
2019-01-26T10:57:12.619Z,99851.45
2019-01-26T11:02:15.882Z,99848.61
2019-01-26T11:07:18.773Z,99842.44
2019-01-26T11:12:21.295Z,99843.52
2019-01-26T11:17:24.552Z,99847.45
2019-01-26T11:22:27.008Z,99844.31
2019-01-26T11:27:30.007Z,99842.66
2019-01-26T11:32:32.811Z,99836.41
2019-01-26T11:37:35.192Z,99840.41
2019-01-26T11:42:37.684Z,99836.78
2019-01-26T11:47:40.142Z,99832.41
2019-01-26T11:52:42.647Z,99839.61
2019-01-26T11:57:44.880Z,99835.66
2019-01-26T12:02:53.669Z,99835.00
2019-01-26T12:07:56.007Z,99829.48
2019-01-26T12:12:58.348Z,99821.64
2019-01-26T12:18:02.064Z,99818.75
2019-01-26T12:23:04.389Z,99807.89
2019-01-26T12:28:07.060Z,99805.23
2019-01-26T12:33:09.851Z,99801.82
2019-01-26T12:38:12.645Z,99790.48
2019-01-26T12:43:15.304Z,99793.05
2019-01-26T12:48:18.314Z,99793.38
2019-01-26T12:53:22.184Z,99794.95
2019-01-26T12:58:25.445Z,99793.88
2019-01-26T13:03:27.658Z,99799.64
2019-01-26T13:08:30.190Z,99796.94
2019-01-26T13:13:33.570Z,99800.70
2019-01-26T13:18:36.198Z,99796.00
2019-01-26T13:23:38.943Z,99789.67
2019-01-26T13:28:41.762Z,99795.72
2019-01-26T13:33:44.502Z,99793.42
2019-01-26T13:38:46.945Z,99794.49
2019-01-26T13:43:49.851Z,99791.63
2019-01-26T13:48:52.312Z,99786.04
2019-01-26T13:53:55.013Z,99787.10
2019-01-26T13:58:57.334Z,99788.16
2019-01-26T14:03:59.846Z,99791.70
2019-01-26T14:09:04.523Z,99796.91
2019-01-26T14:14:09.246Z,99796.68
2019-01-26T14:19:12.342Z,99797.91
2019-01-26T14:24:16.158Z,99791.31
2019-01-26T14:29:18.352Z,99791.08
2019-01-26T14:34:20.603Z,99792.92
2019-01-26T14:39:23.088Z,99781.73
2019-01-26T14:44:25.892Z,99782.02
2019-01-26T14:49:28.343Z,99781.25
2019-01-26T14:54:31.089Z,99780.91
2019-01-26T14:59:36.445Z,99778.84
2019-01-26T15:04:39.044Z,99779.39
2019-01-26T15:09:41.443Z,99772.42
2019-01-26T15:14:43.705Z,99777.56
2019-01-26T15:20:05.815Z,99770.08
2019-01-26T15:25:07.118Z,99768.86
2019-01-26T15:30:45.557Z,99769.34
2019-01-26T15:35:48.618Z,99768.73
2019-01-26T15:40:51.527Z,99758.96
2019-01-26T15:45:54.851Z,99757.00
2019-01-26T15:50:57.471Z,99756.23
2019-01-26T15:56:20.155Z,99746.50
2019-01-26T16:01:22.629Z,99747.02
2019-01-26T16:06:25.366Z,99753.76
2019-01-26T16:11:27.721Z,99751.19
2019-01-26T16:16:30.068Z,99751.80
2019-01-26T16:21:32.330Z,99755.50
2019-01-26T16:26:34.921Z,99748.08
2019-01-26T16:31:37.781Z,99745.89
2019-01-26T16:36:40.127Z,99743.70
2019-01-26T16:41:44.301Z,99744.67
2019-01-26T16:46:47.229Z,99741.65
2019-01-26T16:51:50.200Z,99734.04
2019-01-26T16:56:53.923Z,99739.84
2019-01-26T17:01:56.376Z,99734.70
2019-01-26T17:07:02.890Z,99732.14
2019-01-26T17:12:05.965Z,99726.83
2019-01-26T17:17:08.870Z,99729.12
2019-01-26T17:22:11.152Z,99722.59
2019-01-26T17:27:13.715Z,99721.86
2019-01-26T17:32:16.175Z,99726.23
2019-01-26T17:37:18.629Z,99716.40
2019-01-26T17:42:21.382Z,99713.93
2019-01-26T17:47:23.642Z,99710.37
2019-01-26T17:52:26.201Z,99714.77
2019-01-26T17:57:31.313Z,99712.27
2019-01-26T18:02:34.398Z,99703.44
2019-01-26T18:07:37.413Z,99697.81
2019-01-26T18:12:39.710Z,99695.25
2019-01-26T18:17:45.653Z,99693.16
2019-01-26T18:23:14.683Z,99682.33
2019-01-26T18:28:17.594Z,99683.70
2019-01-26T18:33:20.065Z,99683.92
2019-01-26T18:38:22.277Z,99678.69
2019-01-26T18:43:24.926Z,99671.58
2019-01-26T18:48:27.524Z,99669.45
2019-01-26T18:53:30.527Z,99666.88
2019-01-26T18:58:33.178Z,99662.68
2019-01-26T19:04:18.167Z,99653.75
2019-01-26T19:09:21.552Z,99658.51
2019-01-26T19:14:23.807Z,99646.95
2019-01-26T19:19:26.119Z,99658.06
2019-01-26T19:24:29.226Z,99640.59
2019-01-26T19:29:32.218Z,99634.47
2019-01-26T19:34:34.883Z,99625.48
2019-01-26T19:39:37.211Z,99625.16
2019-01-26T19:44:39.433Z,99620.02
2019-01-26T19:49:41.802Z,99614.88
2019-01-26T19:54:44.502Z,99607.49
2019-01-26T19:59:47.504Z,99597.21
2019-01-26T20:04:51.016Z,99596.83
2019-01-26T20:09:53.289Z,99595.61
2019-01-26T20:14:56.188Z,99584.81
2019-01-26T20:19:58.696Z,99582.00
2019-01-26T20:25:00.934Z,99575.86
2019-01-26T20:30:07.250Z,99571.09
2019-01-26T20:35:09.774Z,99572.38
2019-01-26T20:40:15.229Z,99571.09
2019-01-26T20:45:38.645Z,99559.84
2019-01-26T20:50:41.863Z,99549.84
2019-01-26T20:55:44.312Z,99547.92
2019-01-26T21:00:46.817Z,99547.41
2019-01-26T21:05:49.738Z,99542.16
2019-01-26T21:10:52.222Z,99530.83
2019-01-26T21:15:54.925Z,99522.86
2019-01-26T21:20:57.261Z,99531.61
2019-01-26T21:25:59.723Z,99517.30
2019-01-26T21:31:02.193Z,99511.34
2019-01-26T21:36:05.179Z,99511.92
2019-01-26T21:41:07.447Z,99511.97
2019-01-26T21:46:09.955Z,99508.23
2019-01-26T21:51:12.203Z,99502.34
2019-01-26T21:56:15.781Z,99491.80
2019-01-26T22:01:18.375Z,99487.14
2019-01-26T22:06:20.668Z,99475.75
2019-01-26T22:11:23.031Z,99469.44
2019-01-26T22:16:25.265Z,99472.58
2019-01-26T22:21:28.008Z,99465.95
2019-01-26T22:26:31.131Z,99455.84
2019-01-26T22:31:33.779Z,99455.77
2019-01-26T22:36:37.010Z,99462.02
2019-01-26T22:41:39.275Z,99461.11
2019-01-26T22:46:41.557Z,99455.05
2019-01-26T22:51:44.083Z,99448.05
2019-01-26T22:56:46.975Z,99451.37
2019-01-26T23:01:49.816Z,99444.48
2019-01-26T23:07:48.536Z,99431.03
2019-01-26T23:13:17.755Z,99432.24
2019-01-26T23:19:01.857Z,99419.38
2019-01-26T23:24:56.965Z,99420.47
2019-01-26T23:30:38.553Z,99418.34
2019-01-26T23:35:41.045Z,99413.49
2019-01-26T23:40:43.387Z,99406.59
2019-01-26T23:45:45.620Z,99404.37
2019-01-26T23:50:48.430Z,99393.23
2019-01-26T23:55:50.715Z,99378.53
